Time,TemperatureF,DewpointF,PressureIn,WindDirection,WindDirectionDegrees,WindSpeedMPH,WindSpeedGustMPH,Humidity,HourlyPrecipIn,Conditions,Clouds,dailyrainin,SoftwareType,DateUTC
2013-06-07 00:01:00,69.1,68.8,29.78,SW,236,0.0,0.0,99,0.00,,,0.59,LWC V2.00 B2112,2013-06-07 04:01:00,
2013-06-07 00:06:00,68.9,68.6,29.78,SW,236,0.0,0.0,99,0.00,,,0.59,LWC V2.00 B2112,2013-06-07 04:06:00,
2013-06-07 00:11:00,68.9,68.6,29.78,SW,236,0.0,0.0,99,0.00,,,0.59,LWC V2.00 B2112,2013-06-07 04:11:00,
2013-06-07 00:16:00,68.9,68.6,29.78,SW,236,0.0,0.0,99,0.00,,,0.59,LWC V2.00 B2112,2013-06-07 04:16:00,
2013-06-07 00:21:00,68.9,68.6,29.78,SW,236,0.0,0.0,99,0.00,,,0.59,LWC V2.00 B2112,2013-06-07 04:21:00,
2013-06-07 00:26:00,68.9,68.6,29.78,SW,236,0.0,0.0,99,0.00,,,0.59,LWC V2.00 B2112,2013-06-07 04:26:00,
2013-06-07 00:31:00,68.9,68.6,29.78,SW,236,0.0,0.0,99,0.00,,,0.59,LWC V2.00 B2112,2013-06-07 04:31:00,
2013-06-07 00:36:00,68.9,68.6,29.78,SW,236,0.0,0.0,99,0.00,,,0.59,LWC V2.00 B2112,2013-06-07 04:36:00,
2013-06-07 00:41:00,68.9,68.6,29.77,SW,236,0.0,0.0,99,0.00,,,0.00,LWC V2.00 B2112,2013-06-07 04:41:00,
2013-06-07 00:46:00,68.8,68.5,29.77,SW,236,0.0,0.0,99,0.00,,,0.00,LWC V2.00 B2112,2013-06-07 04:46:00,
2013-06-07 00:51:00,68.8,68.5,29.77,SW,236,0.0,0.0,99,0.00,,,0.00,LWC V2.00 B2112,2013-06-07 04:51:00,
2013-06-07 00:56:00,68.8,68.5,29.77,SW,236,0.0,0.0,99,0.00,,,0.00,LWC V2.00 B2112,2013-06-07 04:56:00,
2013-06-07 01:01:00,68.8,68.5,29.77,SW,236,0.0,0.0,99,0.00,,,0.00,LWC V2.00 B2112,2013-06-07 05:01:00,
2013-06-07 01:06:00,68.8,68.5,29.77,SW,236,0.0,0.0,99,0.00,,,0.00,LWC V2.00 B2112,2013-06-07 05:06:00,
2013-06-07 01:11:00,68.8,68.5,29.77,SW,236,0.0,0.0,99,0.00,,,0.00,LWC V2.00 B2112,2013-06-07 05:11:00,
2013-06-07 01:16:00,68.8,68.5,29.77,SW,236,0.0,0.0,99,0.00,,,0.00,LWC V2.00 B2112,2013-06-07 05:16:00,
2013-06-07 01:21:00,68.8,68.5,29.77,SW,236,0.0,0.0,99,0.00,,,0.00,LWC V2.00 B2112,2013-06-07 05:21:00,
2013-06-07 01:26:00,68.8,68.5,29.76,SW,236,0.0,0.0,99,0.00,,,0.00,LWC V2.00 B2112,2013-06-07 05:26:00,
2013-06-07 01:31:00,68.8,68.5,29.76,SW,236,0.0,0.0,99,0.00,,,0.00,LWC V2.00 B2112,2013-06-07 05:31:00,
2013-06-07 01:36:00,68.9,68.6,29.76,SW,236,0.0,0.0,99,0.00,,,0.00,LWC V2.00 B2112,2013-06-07 05:36:00,
2013-06-07 01:41:00,68.9,68.6,29.76,SW,236,0.0,0.0,99,0.00,,,0.00,LWC V2.00 B2112,2013-06-07 05:41:00,
2013-06-07 01:46:00,69.1,68.8,29.76,SW,236,0.0,0.0,99,0.00,,,0.00,LWC V2.00 B2112,2013-06-07 05:46:00,
2013-06-07 01:56:00,69.1,68.8,29.75,SW,236,0.0,0.0,99,0.00,,,0.01,LWC V2.00 B2112,2013-06-07 05:56:00,
2013-06-07 02:01:00,69.1,68.8,29.75,SW,236,0.0,0.0,99,0.00,,,0.01,LWC V2.00 B2112,2013-06-07 06:01:00,
2013-06-07 02:06:00,69.1,68.8,29.75,SW,236,0.0,0.0,99,0.05,,,0.02,LWC V2.00 B2112,2013-06-07 06:06:00,
2013-06-07 02:11:00,69.1,68.8,29.75,SW,236,0.0,0.0,99,0.05,,,0.02,LWC V2.00 B2112,2013-06-07 06:11:00,
2013-06-07 02:16:00,69.1,68.8,29.75,SW,236,0.0,0.0,99,0.07,,,0.03,LWC V2.00 B2112,2013-06-07 06:16:00,
2013-06-07 02:21:00,69.3,69.0,29.75,SW,236,0.0,0.0,99,0.07,,,0.03,LWC V2.00 B2112,2013-06-07 06:21:00,
2013-06-07 02:26:00,69.3,69.0,29.74,SW,236,0.0,0.0,99,0.05,,,0.03,LWC V2.00 B2112,2013-06-07 06:26:00,
2013-06-07 02:31:00,69.3,69.0,29.74,SW,236,0.0,0.0,99,0.04,,,0.04,LWC V2.00 B2112,2013-06-07 06:31:00,
2013-06-07 02:36:00,69.3,69.0,29.74,SW,236,0.0,0.0,99,0.04,,,0.04,LWC V2.00 B2112,2013-06-07 06:36:00,
2013-06-07 02:41:00,69.4,69.1,29.73,SW,236,0.0,0.0,99,0.04,,,0.04,LWC V2.00 B2112,2013-06-07 06:41:00,
2013-06-07 02:46:00,69.4,69.1,29.73,SW,236,0.0,0.0,99,0.04,,,0.05,LWC V2.00 B2112,2013-06-07 06:46:00,
2013-06-07 02:56:00,69.6,69.3,29.72,SW,236,0.0,0.0,99,0.04,,,0.05,LWC V2.00 B2112,2013-06-07 06:56:00,
2013-06-07 03:01:00,69.6,69.6,29.72,SW,236,0.0,0.0,100,0.05,,,0.06,LWC V2.00 B2112,2013-06-07 07:01:00,
2013-06-07 03:06:00,69.6,69.3,29.72,SW,236,0.0,0.0,99,0.10,,,0.07,LWC V2.00 B2112,2013-06-07 07:06:00,
2013-06-07 03:11:00,69.6,69.6,29.71,SW,236,0.0,0.0,100,0.07,,,0.08,LWC V2.00 B2112,2013-06-07 07:11:00,
2013-06-07 03:16:00,69.6,69.6,29.71,SW,236,0.0,0.0,100,0.07,,,0.08,LWC V2.00 B2112,2013-06-07 07:16:00,
2013-06-07 03:21:00,69.6,69.6,29.71,SW,236,0.0,0.0,100,0.05,,,0.08,LWC V2.00 B2112,2013-06-07 07:21:00,
2013-06-07 03:26:00,69.6,69.6,29.70,SW,236,0.0,0.0,100,0.04,,,0.08,LWC V2.00 B2112,2013-06-07 07:26:00,
2013-06-07 03:31:00,69.6,69.6,29.70,SW,236,0.0,0.0,100,0.00,,,0.09,LWC V2.00 B2112,2013-06-07 07:31:00,
2013-06-07 03:36:00,69.6,69.6,29.70,SW,236,0.0,0.0,100,0.00,,,0.09,LWC V2.00 B2112,2013-06-07 07:36:00,
2013-06-07 03:41:00,69.4,69.4,29.69,SW,236,0.0,0.0,100,0.00,,,0.09,LWC V2.00 B2112,2013-06-07 07:41:00,
2013-06-07 03:46:00,69.4,69.4,29.69,SW,236,0.0,0.0,100,0.00,,,0.09,LWC V2.00 B2112,2013-06-07 07:46:00,
2013-06-07 03:51:00,69.4,69.4,29.69,SW,236,0.0,0.0,100,0.00,,,0.09,LWC V2.00 B2112,2013-06-07 07:51:00,
2013-06-07 03:56:00,69.3,69.3,29.68,SW,236,0.0,0.0,100,0.00,,,0.10,LWC V2.00 B2112,2013-06-07 07:56:00,
2013-06-07 04:06:00,69.3,69.3,29.68,SW,236,0.0,0.0,100,0.06,,,0.11,LWC V2.00 B2112,2013-06-07 08:06:00,
2013-06-07 04:11:00,69.3,69.3,29.67,SW,236,0.0,0.0,100,0.24,,,0.13,LWC V2.00 B2112,2013-06-07 08:11:00,
2013-06-07 04:16:00,69.1,69.1,29.67,SW,236,0.0,0.0,100,0.27,,,0.16,LWC V2.00 B2112,2013-06-07 08:16:00,
2013-06-07 04:26:00,68.9,68.9,29.66,SW,236,0.0,0.0,100,0.68,,,0.23,LWC V2.00 B2112,2013-06-07 08:26:00,
2013-06-07 04:31:00,68.8,68.8,29.66,East,101,0.0,0.0,100,0.98,,,0.29,LWC V2.00 B2112,2013-06-07 08:31:00,
2013-06-07 04:36:00,68.6,68.3,29.66,East,101,0.0,0.0,99,0.64,,,0.34,LWC V2.00 B2112,2013-06-07 08:36:00,
2013-06-07 04:46:00,68.3,68.0,29.64,East,101,0.0,0.0,99,0.23,,,0.40,LWC V2.00 B2112,2013-06-07 08:46:00,
2013-06-07 04:51:00,68.1,68.1,29.64,East,101,0.0,0.0,100,0.12,,,0.41,LWC V2.00 B2112,2013-06-07 08:51:00,
2013-06-07 04:56:00,68.1,68.1,29.64,East,101,0.0,0.0,100,0.09,,,0.42,LWC V2.00 B2112,2013-06-07 08:56:00,
2013-06-07 05:01:00,68.1,68.1,29.64,WSW,237,0.0,0.0,100,0.09,,,0.42,LWC V2.00 B2112,2013-06-07 09:01:00,
2013-06-07 05:11:00,68.1,68.1,29.63,SW,236,0.0,0.0,100,0.08,,,0.44,LWC V2.00 B2112,2013-06-07 09:11:00,
2013-06-07 05:16:00,68.3,68.3,29.63,SW,236,0.0,0.0,100,0.14,,,0.45,LWC V2.00 B2112,2013-06-07 09:16:00,
2013-06-07 05:21:00,68.3,68.3,29.63,East,96,0.0,0.0,100,0.07,,,0.46,LWC V2.00 B2112,2013-06-07 09:21:00,
2013-06-07 05:26:00,68.3,68.3,29.63,East,96,0.0,0.0,100,0.57,,,0.50,LWC V2.00 B2112,2013-06-07 09:26:00,
2013-06-07 05:31:00,68.3,68.3,29.63,East,96,0.0,0.0,100,0.42,,,0.53,LWC V2.00 B2112,2013-06-07 09:31:00,
2013-06-07 05:36:00,68.3,68.3,29.63,East,96,0.0,0.0,100,0.27,,,0.55,LWC V2.00 B2112,2013-06-07 09:36:00,
2013-06-07 05:41:00,68.3,68.3,29.61,East,93,0.0,0.0,100,0.14,,,0.56,LWC V2.00 B2112,2013-06-07 09:41:00,
2013-06-07 05:46:00,68.1,68.1,29.61,East,85,0.0,0.0,100,0.08,,,0.56,LWC V2.00 B2112,2013-06-07 09:46:00,
2013-06-07 05:51:00,68.1,68.1,29.61,East,85,0.0,0.0,100,0.07,,,0.57,LWC V2.00 B2112,2013-06-07 09:51:00,
2013-06-07 05:56:00,68.1,68.1,29.61,East,87,0.0,0.0,100,0.08,,,0.58,LWC V2.00 B2112,2013-06-07 09:56:00,
2013-06-07 06:01:00,68.1,68.1,29.61,East,87,0.0,0.0,100,0.08,,,0.58,LWC V2.00 B2112,2013-06-07 10:01:00,
2013-06-07 06:06:00,67.9,67.9,29.61,East,98,0.0,0.0,100,0.06,,,0.59,LWC V2.00 B2112,2013-06-07 10:06:00,
2013-06-07 06:11:00,67.9,67.9,29.60,East,98,0.0,0.0,100,0.06,,,0.59,LWC V2.00 B2112,2013-06-07 10:11:00,
2013-06-07 06:16:00,67.9,67.9,29.60,East,98,0.0,0.0,100,0.11,,,0.60,LWC V2.00 B2112,2013-06-07 10:16:00,
2013-06-07 06:21:00,67.9,67.9,29.60,East,98,0.0,0.0,100,0.11,,,0.61,LWC V2.00 B2112,2013-06-07 10:21:00,
2013-06-07 06:26:00,67.9,67.9,29.60,East,97,0.0,0.0,100,0.06,,,0.61,LWC V2.00 B2112,2013-06-07 10:26:00,
2013-06-07 06:31:00,67.9,67.9,29.60,East,97,0.0,0.0,100,0.04,,,0.61,LWC V2.00 B2112,2013-06-07 10:31:00,
2013-06-07 06:36:00,68.1,68.1,29.60,SW,218,0.0,0.0,100,0.00,,,0.61,LWC V2.00 B2112,2013-06-07 10:36:00,
2013-06-07 06:41:00,68.1,68.1,29.60,South,191,0.0,0.0,100,0.00,,,0.61,LWC V2.00 B2112,2013-06-07 10:41:00,
2013-06-07 06:46:00,68.1,68.1,29.60,South,191,0.0,0.0,100,0.00,,,0.61,LWC V2.00 B2112,2013-06-07 10:46:00,
2013-06-07 06:51:00,68.1,68.1,29.60,WNW,288,0.0,0.0,100,0.00,,,0.61,LWC V2.00 B2112,2013-06-07 10:51:00,
2013-06-07 06:56:00,68.3,68.3,29.60,SW,233,0.0,0.0,100,0.17,,,0.63,LWC V2.00 B2112,2013-06-07 10:56:00,
2013-06-07 07:01:00,68.3,68.3,29.60,WSW,255,0.0,0.0,100,0.35,,,0.66,LWC V2.00 B2112,2013-06-07 11:01:00,
2013-06-07 07:06:00,68.3,68.3,29.60,WSW,255,0.0,0.0,100,0.17,,,0.67,LWC V2.00 B2112,2013-06-07 11:06:00,
2013-06-07 07:11:00,68.3,68.3,29.60,WSW,255,0.0,0.0,100,0.08,,,0.68,LWC V2.00 B2112,2013-06-07 11:11:00,
2013-06-07 07:16:00,68.3,68.3,29.60,WSW,255,0.0,0.0,100,0.08,,,0.68,LWC V2.00 B2112,2013-06-07 11:16:00,
2013-06-07 07:21:00,68.4,68.4,29.60,WSW,255,0.0,0.0,100,0.07,,,0.69,LWC V2.00 B2112,2013-06-07 11:21:00,
2013-06-07 07:26:00,68.4,68.4,29.59,WSW,255,0.0,0.0,100,0.19,,,0.71,LWC V2.00 B2112,2013-06-07 11:26:00,
2013-06-07 07:31:00,68.6,68.6,29.59,WSW,255,0.0,0.0,100,0.18,,,0.72,LWC V2.00 B2112,2013-06-07 11:31:00,
2013-06-07 07:36:00,68.6,68.6,29.59,WSW,255,0.0,0.0,100,0.14,,,0.73,LWC V2.00 B2112,2013-06-07 11:36:00,
2013-06-07 07:41:00,68.6,68.6,29.57,WSW,255,0.0,0.0,100,0.12,,,0.73,LWC V2.00 B2112,2013-06-07 11:41:00,
2013-06-07 07:46:00,68.8,68.8,29.57,WSW,255,0.0,0.0,100,0.06,,,0.73,LWC V2.00 B2112,2013-06-07 11:46:00,
2013-06-07 07:51:00,68.9,68.9,29.57,WSW,255,0.0,0.0,100,0.05,,,0.74,LWC V2.00 B2112,2013-06-07 11:51:00,
2013-06-07 07:56:00,69.1,69.1,29.58,WSW,255,0.0,0.0,100,0.05,,,0.74,LWC V2.00 B2112,2013-06-07 11:56:00,
2013-06-07 08:06:00,69.1,69.1,29.58,West,270,0.0,0.0,100,0.05,,,0.75,LWC V2.00 B2112,2013-06-07 12:06:00,
2013-06-07 08:16:00,69.1,69.1,29.58,WSW,238,0.0,0.0,100,0.05,,,0.76,LWC V2.00 B2112,2013-06-07 12:16:00,
2013-06-07 08:21:00,69.1,69.1,29.58,SW,225,0.0,0.0,100,0.05,,,0.76,LWC V2.00 B2112,2013-06-07 12:21:00,
2013-06-07 08:26:00,69.1,69.1,29.58,East,79,0.0,0.0,100,0.05,,,0.77,LWC V2.00 B2112,2013-06-07 12:26:00,
2013-06-07 08:31:00,69.3,69.3,29.58,WSW,237,0.0,0.0,100,0.05,,,0.77,LWC V2.00 B2112,2013-06-07 12:31:00,
2013-06-07 08:36:00,69.4,69.4,29.58,SSE,156,0.0,0.0,100,0.07,,,0.78,LWC V2.00 B2112,2013-06-07 12:36:00,
2013-06-07 08:41:00,69.6,69.6,29.57,SSE,156,0.0,0.0,100,0.06,,,0.78,LWC V2.00 B2112,2013-06-07 12:41:00,
2013-06-07 08:46:00,69.9,69.9,29.57,SSE,156,0.0,0.0,100,0.04,,,0.78,LWC V2.00 B2112,2013-06-07 12:46:00,
2013-06-07 08:51:00,70.1,70.1,29.57,SSE,156,0.0,0.0,100,0.00,,,0.78,LWC V2.00 B2112,2013-06-07 12:51:00,
2013-06-07 08:56:00,70.3,70.3,29.58,SSE,156,0.0,0.0,100,0.00,,,0.78,LWC V2.00 B2112,2013-06-07 12:56:00,
2013-06-07 09:01:00,70.4,70.4,29.58,SSE,156,0.0,0.0,100,0.00,,,0.78,LWC V2.00 B2112,2013-06-07 13:01:00,
2013-06-07 09:11:00,70.8,70.8,29.58,SSE,156,0.0,0.0,100,0.00,,,0.78,LWC V2.00 B2112,2013-06-07 13:11:00,
2013-06-07 09:16:00,71.3,71.3,29.58,South,179,0.0,0.0,100,0.00,,,0.78,LWC V2.00 B2112,2013-06-07 13:16:00,
2013-06-07 09:21:00,72.0,72.0,29.58,South,186,0.0,0.0,100,0.00,,,0.78,LWC V2.00 B2112,2013-06-07 13:21:00,
2013-06-07 09:26:00,72.3,72.3,29.57,South,186,0.0,0.0,100,0.00,,,0.78,LWC V2.00 B2112,2013-06-07 13:26:00,
2013-06-07 09:31:00,72.5,72.5,29.57,SW,230,0.0,0.0,100,0.00,,,0.78,LWC V2.00 B2112,2013-06-07 13:31:00,
2013-06-07 09:36:00,72.7,72.7,29.57,SW,230,0.0,0.0,100,0.00,,,0.78,LWC V2.00 B2112,2013-06-07 13:36:00,
2013-06-07 09:41:00,73.2,73.2,29.56,SW,230,0.0,0.0,100,0.00,,,0.78,LWC V2.00 B2112,2013-06-07 13:41:00,
2013-06-07 09:46:00,73.0,73.0,29.56,SW,230,0.0,0.0,100,0.00,,,0.78,LWC V2.00 B2112,2013-06-07 13:46:00,
2013-06-07 09:51:00,72.7,72.7,29.56,SW,230,0.0,0.0,100,0.00,,,0.78,LWC V2.00 B2112,2013-06-07 13:51:00,
2013-06-07 10:01:00,72.8,72.8,29.55,SW,228,0.0,0.0,100,0.00,,,0.79,LWC V2.00 B2112,2013-06-07 14:01:00,
2013-06-07 10:06:00,72.7,72.7,29.55,SW,228,0.0,0.0,100,0.18,,,0.81,LWC V2.00 B2112,2013-06-07 14:06:00,
2013-06-07 10:11:00,72.5,72.5,29.55,SW,228,0.0,0.0,100,0.16,,,0.82,LWC V2.00 B2112,2013-06-07 14:11:00,
2013-06-07 10:21:00,72.7,72.7,29.55,SW,228,0.0,0.0,100,0.12,,,0.85,LWC V2.00 B2112,2013-06-07 14:21:00,
2013-06-07 10:26:00,72.8,72.8,29.55,SW,228,0.0,0.0,100,0.12,,,0.86,LWC V2.00 B2112,2013-06-07 14:26:00,
2013-06-07 10:31:00,72.7,72.7,29.55,SW,228,0.0,0.0,100,0.25,,,0.88,LWC V2.00 B2112,2013-06-07 14:31:00,
2013-06-07 10:36:00,72.5,72.5,29.55,SW,228,0.0,0.0,100,0.16,,,0.89,LWC V2.00 B2112,2013-06-07 14:36:00,
2013-06-07 10:41:00,72.5,72.5,29.53,SW,228,0.0,0.0,100,0.30,,,0.92,LWC V2.00 B2112,2013-06-07 14:41:00,
2013-06-07 10:46:00,72.7,72.7,29.53,SW,228,0.0,0.0,100,0.13,,,0.93,LWC V2.00 B2112,2013-06-07 14:46:00,
2013-06-07 10:56:00,73.2,73.2,29.53,SW,228,0.0,0.0,100,0.09,,,0.94,LWC V2.00 B2112,2013-06-07 14:56:00,
2013-06-07 11:01:00,73.2,73.2,29.53,SW,228,0.0,0.0,100,0.05,,,0.94,LWC V2.00 B2112,2013-06-07 15:01:00,
2013-06-07 11:06:00,73.3,73.3,29.53,SW,228,0.0,0.0,100,0.04,,,0.94,LWC V2.00 B2112,2013-06-07 15:06:00,
2013-06-07 11:11:00,73.5,73.5,29.53,SW,228,0.0,0.0,100,0.00,,,0.94,LWC V2.00 B2112,2013-06-07 15:11:00,
2013-06-07 11:16:00,73.5,73.5,29.53,SW,228,0.0,0.0,100,0.00,,,0.94,LWC V2.00 B2112,2013-06-07 15:16:00,
2013-06-07 11:26:00,73.9,73.9,29.52,SW,228,0.0,0.0,100,0.00,,,0.94,LWC V2.00 B2112,2013-06-07 15:26:00,
2013-06-07 11:31:00,73.9,73.9,29.52,SW,228,0.0,0.0,100,0.00,,,0.95,LWC V2.00 B2112,2013-06-07 15:31:00,
2013-06-07 11:36:00,74.4,74.4,29.52,SW,228,0.0,0.0,100,0.00,,,0.95,LWC V2.00 B2112,2013-06-07 15:36:00,
2013-06-07 11:41:00,75.3,75.3,29.51,SW,228,0.0,0.0,100,0.00,,,0.95,LWC V2.00 B2112,2013-06-07 15:41:00,
2013-06-07 11:46:00,75.1,75.1,29.51,SE,134,0.0,0.0,100,0.00,,,0.95,LWC V2.00 B2112,2013-06-07 15:46:00,
2013-06-07 11:51:00,75.4,75.4,29.51,SE,134,0.0,0.0,100,0.00,,,0.95,LWC V2.00 B2112,2013-06-07 15:51:00,
2013-06-07 11:56:00,75.3,75.0,29.50,SE,134,0.0,0.0,99,0.00,,,0.95,LWC V2.00 B2112,2013-06-07 15:56:00,
2013-06-07 12:01:00,75.3,75.0,29.50,SE,134,0.0,0.0,99,0.00,,,0.95,LWC V2.00 B2112,2013-06-07 16:01:00,
2013-06-07 12:06:00,74.9,74.6,29.50,SE,134,0.0,0.0,99,0.00,,,0.95,LWC V2.00 B2112,2013-06-07 16:06:00,
2013-06-07 12:11:00,74.7,74.4,29.50,SE,134,0.0,0.0,99,0.79,,,0.97,LWC V2.00 B2112,2013-06-07 16:11:00,
2013-06-07 12:16:00,74.6,74.3,29.50,SE,134,0.0,0.0,99,0.32,,,1.03,LWC V2.00 B2112,2013-06-07 16:16:00,
2013-06-07 12:21:00,74.4,73.8,29.50,SE,134,0.0,0.0,98,0.41,,,1.12,LWC V2.00 B2112,2013-06-07 16:21:00,
2013-06-07 12:26:00,74.2,73.6,29.49,SE,134,0.0,0.0,98,1.08,,,1.21,LWC V2.00 B2112,2013-06-07 16:26:00,
2013-06-07 12:31:00,74.2,73.6,29.49,SE,134,0.0,0.0,98,0.31,,,1.25,LWC V2.00 B2112,2013-06-07 16:31:00,
2013-06-07 12:36:00,74.0,73.4,29.49,SE,134,0.0,0.0,98,0.59,,,1.30,LWC V2.00 B2112,2013-06-07 16:36:00,
2013-06-07 12:41:00,74.2,73.9,29.48,SE,134,0.0,0.0,99,0.12,,,1.31,LWC V2.00 B2112,2013-06-07 16:41:00,
2013-06-07 12:51:00,74.0,73.4,29.48,SE,134,0.0,0.0,98,0.07,,,1.32,LWC V2.00 B2112,2013-06-07 16:51:00,
2013-06-07 12:56:00,74.4,74.1,29.47,SE,134,0.0,0.0,99,0.07,,,1.33,LWC V2.00 B2112,2013-06-07 16:56:00,
2013-06-07 13:01:00,74.6,74.3,29.47,SE,134,0.0,0.0,99,0.07,,,1.33,LWC V2.00 B2112,2013-06-07 17:01:00,
2013-06-07 13:06:00,74.6,74.3,29.47,SE,134,0.0,0.0,99,0.05,,,1.34,LWC V2.00 B2112,2013-06-07 17:06:00,
2013-06-07 13:11:00,74.6,74.3,29.46,SE,134,0.0,0.0,99,0.05,,,1.34,LWC V2.00 B2112,2013-06-07 17:11:00,
2013-06-07 13:16:00,74.4,73.8,29.46,SW,224,0.0,0.0,98,0.05,,,1.34,LWC V2.00 B2112,2013-06-07 17:16:00,
2013-06-07 13:21:00,74.6,74.3,29.46,SW,224,0.0,0.0,99,0.00,,,1.34,LWC V2.00 B2112,2013-06-07 17:21:00,
2013-06-07 13:26:00,75.3,75.0,29.45,SW,224,0.0,0.0,99,0.00,,,1.34,LWC V2.00 B2112,2013-06-07 17:26:00,
2013-06-07 13:31:00,75.8,75.5,29.45,SW,224,0.0,0.0,99,0.00,,,1.34,LWC V2.00 B2112,2013-06-07 17:31:00,
2013-06-07 13:36:00,75.8,75.5,29.45,SW,224,0.0,0.0,99,0.00,,,1.34,LWC V2.00 B2112,2013-06-07 17:36:00,
2013-06-07 13:41:00,76.0,75.7,29.44,SW,224,0.0,0.0,99,0.00,,,1.34,LWC V2.00 B2112,2013-06-07 17:41:00,
2013-06-07 13:46:00,75.8,75.2,29.44,SW,224,0.0,0.0,98,0.00,,,1.34,LWC V2.00 B2112,2013-06-07 17:46:00,
2013-06-07 13:51:00,75.4,74.8,29.44,SW,224,0.0,0.0,98,0.00,,,1.34,LWC V2.00 B2112,2013-06-07 17:51:00,
2013-06-07 13:56:00,75.1,74.2,29.43,SW,224,0.0,0.0,97,0.00,,,1.35,LWC V2.00 B2112,2013-06-07 17:56:00,
2013-06-07 14:01:00,74.7,73.8,29.43,SW,224,0.0,0.0,97,0.19,,,1.37,LWC V2.00 B2112,2013-06-07 18:01:00,
2013-06-07 14:11:00,74.9,74.3,29.43,SW,224,0.0,0.0,98,0.05,,,1.37,LWC V2.00 B2112,2013-06-07 18:11:00,
2013-06-07 14:16:00,74.9,74.3,29.43,SW,224,0.0,0.0,98,0.04,,,1.37,LWC V2.00 B2112,2013-06-07 18:16:00,
2013-06-07 14:31:00,74.6,74.0,29.43,SW,224,0.0,0.0,98,0.00,,,1.38,LWC V2.00 B2112,2013-06-07 18:31:00,
2013-06-07 14:36:00,74.4,73.8,29.43,WNW,293,0.0,0.0,98,0.00,,,1.38,LWC V2.00 B2112,2013-06-07 18:36:00,
2013-06-07 14:41:00,74.2,73.6,29.42,NW,307,0.0,0.0,98,2.37,,,1.42,LWC V2.00 B2112,2013-06-07 18:41:00,
2013-06-07 14:46:00,73.2,72.3,29.42,WNW,296,0.0,0.0,97,0.48,,,1.53,LWC V2.00 B2112,2013-06-07 18:46:00,
2013-06-07 14:51:00,72.3,71.4,29.42,NW,314,0.0,1.0,97,1.79,,,1.64,LWC V2.00 B2112,2013-06-07 18:51:00,
2013-06-07 14:56:00,71.6,70.7,29.42,SW,214,0.0,0.0,97,1.27,,,1.76,LWC V2.00 B2112,2013-06-07 18:56:00,
2013-06-07 15:06:00,70.8,69.9,29.42,WNW,303,0.0,0.0,97,0.90,,,1.92,LWC V2.00 B2112,2013-06-07 19:06:00,
2013-06-07 15:11:00,70.4,69.8,29.42,West,281,0.0,6.0,98,0.37,,,1.95,LWC V2.00 B2112,2013-06-07 19:11:00,
2013-06-07 15:21:00,70.3,69.7,29.42,North,359,0.0,3.0,98,0.63,,,2.03,LWC V2.00 B2112,2013-06-07 19:21:00,
2013-06-07 15:31:00,70.1,69.8,29.43,NNE,26,0.0,0.0,99,0.51,,,2.11,LWC V2.00 B2112,2013-06-07 19:31:00,
2013-06-07 15:36:00,69.9,69.6,29.43,SSW,205,0.0,0.0,99,0.36,,,2.14,LWC V2.00 B2112,2013-06-07 19:36:00,
2013-06-07 15:51:00,69.8,69.5,29.46,NW,304,0.0,0.0,99,0.24,,,2.23,LWC V2.00 B2112,2013-06-07 19:51:00,
2013-06-07 15:56:00,69.8,69.5,29.48,WSW,243,0.0,6.0,99,0.23,,,2.25,LWC V2.00 B2112,2013-06-07 19:56:00,
2013-06-07 16:01:00,69.6,69.3,29.48,West,274,0.0,0.0,99,0.24,,,2.27,LWC V2.00 B2112,2013-06-07 20:01:00,
2013-06-07 16:06:00,69.4,69.1,29.48,WNW,300,5.0,5.0,99,0.16,,,2.28,LWC V2.00 B2112,2013-06-07 20:06:00,
2013-06-07 16:11:00,69.4,69.1,29.45,SE,129,0.0,0.0,99,0.14,,,2.29,LWC V2.00 B2112,2013-06-07 20:11:00,
2013-06-07 16:16:00,69.3,69.0,29.45,West,269,0.0,5.0,99,0.08,,,2.29,LWC V2.00 B2112,2013-06-07 20:16:00,
2013-06-07 16:21:00,69.3,69.0,29.45,North,0,0.0,3.0,99,0.07,,,2.30,LWC V2.00 B2112,2013-06-07 20:21:00,
2013-06-07 16:31:00,69.1,68.8,29.40,SW,223,2.0,2.0,99,0.13,,,2.32,LWC V2.00 B2112,2013-06-07 20:31:00,
2013-06-07 16:36:00,69.1,68.8,29.40,WNW,298,0.0,4.0,99,0.14,,,2.33,LWC V2.00 B2112,2013-06-07 20:36:00,
2013-06-07 16:41:00,68.9,68.6,29.42,WSW,248,2.0,7.0,99,0.13,,,2.34,LWC V2.00 B2112,2013-06-07 20:41:00,
2013-06-07 16:51:00,68.9,68.6,29.42,West,271,0.0,0.0,99,0.11,,,2.36,LWC V2.00 B2112,2013-06-07 20:51:00,
2013-06-07 16:56:00,68.9,68.6,29.47,West,280,0.0,0.0,99,0.09,,,2.36,LWC V2.00 B2112,2013-06-07 20:56:00,
2013-06-07 17:06:00,68.9,68.6,29.47,WNW,286,0.0,3.0,99,0.08,,,2.38,LWC V2.00 B2112,2013-06-07 21:06:00,
2013-06-07 17:16:00,68.8,68.5,29.49,NNW,335,0.0,0.0,99,0.07,,,2.39,LWC V2.00 B2112,2013-06-07 21:16:00,
2013-06-07 17:21:00,68.8,68.5,29.49,SE,146,0.0,1.0,99,0.07,,,2.39,LWC V2.00 B2112,2013-06-07 21:21:00,
2013-06-07 17:26:00,68.6,68.3,29.52,West,267,0.0,0.0,99,0.04,,,2.39,LWC V2.00 B2112,2013-06-07 21:26:00,
2013-06-07 17:36:00,68.6,68.3,29.52,WSW,238,0.0,0.0,99,0.00,,,2.39,LWC V2.00 B2112,2013-06-07 21:36:00,
2013-06-07 17:41:00,68.6,68.3,29.53,WSW,257,0.0,0.0,99,0.00,,,2.39,LWC V2.00 B2112,2013-06-07 21:41:00,
2013-06-07 17:46:00,68.6,68.3,29.53,WNW,285,0.0,1.0,99,0.00,,,2.39,LWC V2.00 B2112,2013-06-07 21:46:00,
2013-06-07 17:51:00,68.6,68.3,29.53,West,270,0.0,2.0,99,0.00,,,2.39,LWC V2.00 B2112,2013-06-07 21:51:00,
2013-06-07 17:56:00,68.8,68.5,29.54,West,279,0.0,0.0,99,0.00,,,2.39,LWC V2.00 B2112,2013-06-07 21:56:00,
2013-06-07 18:01:00,68.8,68.5,29.54,WSW,244,0.0,0.0,99,0.00,,,2.39,LWC V2.00 B2112,2013-06-07 22:01:00,
2013-06-07 18:06:00,68.6,68.3,29.54,North,7,0.0,0.0,99,0.00,,,2.39,LWC V2.00 B2112,2013-06-07 22:06:00,
2013-06-07 18:11:00,68.8,68.5,29.56,SW,220,0.0,0.0,99,0.00,,,2.39,LWC V2.00 B2112,2013-06-07 22:11:00,
2013-06-07 18:16:00,68.8,68.5,29.56,WNW,291,0.0,0.0,99,0.00,,,2.39,LWC V2.00 B2112,2013-06-07 22:16:00,
2013-06-07 18:21:00,68.9,68.6,29.56,SSW,210,0.0,0.0,99,0.00,,,2.39,LWC V2.00 B2112,2013-06-07 22:21:00,
2013-06-07 18:26:00,68.9,68.6,29.56,WNW,285,0.0,0.0,99,0.00,,,2.39,LWC V2.00 B2112,2013-06-07 22:26:00,
2013-06-07 18:31:00,68.9,68.6,29.56,ESE,103,0.0,0.0,99,0.00,,,2.39,LWC V2.00 B2112,2013-06-07 22:31:00,
2013-06-07 18:41:00,68.9,68.6,29.57,WSW,258,0.0,0.0,99,0.00,,,2.39,LWC V2.00 B2112,2013-06-07 22:41:00,
2013-06-07 18:46:00,69.1,68.8,29.57,WSW,257,0.0,0.0,99,0.00,,,2.39,LWC V2.00 B2112,2013-06-07 22:46:00,
2013-06-07 19:01:00,69.1,68.8,29.59,SSE,158,0.0,0.0,99,0.00,,,2.39,LWC V2.00 B2112,2013-06-07 23:01:00,
2013-06-07 19:16:00,69.1,68.8,29.61,WNW,300,0.0,0.0,99,0.00,,,2.39,LWC V2.00 B2112,2013-06-07 23:16:00,
2013-06-07 19:21:00,69.3,69.0,29.61,WSW,258,0.0,0.0,99,0.00,,,2.39,LWC V2.00 B2112,2013-06-07 23:21:00,
2013-06-07 19:26:00,69.3,69.0,29.61,SSE,151,0.0,0.0,99,0.00,,,2.39,LWC V2.00 B2112,2013-06-07 23:26:00,
2013-06-07 19:41:00,69.4,69.1,29.63,WSW,254,0.0,0.0,99,0.00,,,2.39,LWC V2.00 B2112,2013-06-07 23:41:00,
2013-06-07 19:46:00,69.4,69.1,29.63,WSW,254,0.0,0.0,99,0.00,,,2.39,LWC V2.00 B2112,2013-06-07 23:46:00,
2013-06-07 19:51:00,69.4,69.1,29.63,SW,233,0.0,0.0,99,0.00,,,2.39,LWC V2.00 B2112,2013-06-07 23:51:00,
2013-06-07 19:56:00,69.3,69.0,29.63,SW,233,0.0,0.0,99,0.00,,,2.39,LWC V2.00 B2112,2013-06-07 23:56:00,
2013-06-07 20:06:00,69.3,69.0,29.63,SW,234,0.0,0.0,99,0.00,,,2.39,LWC V2.00 B2112,2013-06-08 00:06:00,
2013-06-07 20:16:00,69.1,68.8,29.64,SW,235,0.0,0.0,99,0.00,,,2.39,LWC V2.00 B2112,2013-06-08 00:16:00,
2013-06-07 20:21:00,69.1,68.8,29.64,SW,235,0.0,0.0,99,0.00,,,2.39,LWC V2.00 B2112,2013-06-08 00:21:00,
2013-06-07 20:26:00,69.1,68.8,29.66,SW,235,0.0,0.0,99,0.00,,,2.39,LWC V2.00 B2112,2013-06-08 00:26:00,
2013-06-07 20:31:00,69.1,68.8,29.66,SW,235,0.0,0.0,99,0.00,,,2.39,LWC V2.00 B2112,2013-06-08 00:31:00,
2013-06-07 20:36:00,69.1,68.8,29.66,SW,235,0.0,0.0,99,0.00,,,2.39,LWC V2.00 B2112,2013-06-08 00:36:00,
2013-06-07 20:41:00,69.1,68.8,29.66,SSW,210,0.0,0.0,99,0.00,,,2.39,LWC V2.00 B2112,2013-06-08 00:41:00,
2013-06-07 20:46:00,69.1,68.8,29.66,NW,312,0.0,0.0,99,0.00,,,2.39,LWC V2.00 B2112,2013-06-08 00:46:00,
2013-06-07 20:56:00,69.1,68.8,29.67,WSW,255,0.0,0.0,99,0.00,,,2.39,LWC V2.00 B2112,2013-06-08 00:56:00,
2013-06-07 21:01:00,69.1,68.8,29.67,WSW,255,0.0,0.0,99,0.00,,,2.39,LWC V2.00 B2112,2013-06-08 01:01:00,
2013-06-07 21:11:00,69.3,69.0,29.68,SSW,202,0.0,0.0,99,0.00,,,2.39,LWC V2.00 B2112,2013-06-08 01:11:00,
2013-06-07 21:21:00,69.3,69.0,29.68,SSW,202,0.0,0.0,99,0.00,,,2.39,LWC V2.00 B2112,2013-06-08 01:21:00,
2013-06-07 21:26:00,69.4,69.1,29.69,SSW,202,0.0,0.0,99,0.00,,,2.39,LWC V2.00 B2112,2013-06-08 01:26:00,
2013-06-07 21:31:00,69.4,69.1,29.69,SSW,202,0.0,0.0,99,0.00,,,2.39,LWC V2.00 B2112,2013-06-08 01:31:00,
2013-06-07 21:41:00,69.4,69.1,29.70,SSW,202,0.0,0.0,99,0.00,,,2.40,LWC V2.00 B2112,2013-06-08 01:41:00,
2013-06-07 21:46:00,69.6,69.3,29.70,SSW,202,0.0,0.0,99,0.16,,,2.41,LWC V2.00 B2112,2013-06-08 01:46:00,
2013-06-07 21:56:00,69.6,69.3,29.71,SSW,193,0.0,0.0,99,0.04,,,2.41,LWC V2.00 B2112,2013-06-08 01:56:00,
2013-06-07 22:01:00,69.6,69.3,29.71,SSW,193,0.0,0.0,99,0.00,,,2.41,LWC V2.00 B2112,2013-06-08 02:01:00,
2013-06-07 22:11:00,69.8,69.5,29.72,SSW,193,0.0,0.0,99,0.00,,,2.41,LWC V2.00 B2112,2013-06-08 02:11:00,
2013-06-07 22:16:00,69.8,69.5,29.72,SSW,193,0.0,0.0,99,0.00,,,2.41,LWC V2.00 B2112,2013-06-08 02:16:00,
2013-06-07 22:21:00,69.8,69.5,29.72,SSW,193,0.0,0.0,99,0.00,,,2.41,LWC V2.00 B2112,2013-06-08 02:21:00,
2013-06-07 22:26:00,69.8,69.8,29.72,SSW,193,0.0,0.0,100,2.24,,,2.47,LWC V2.00 B2112,2013-06-08 02:26:00,
2013-06-07 22:31:00,69.8,69.8,29.72,SSW,193,0.0,0.0,100,0.16,,,2.50,LWC V2.00 B2112,2013-06-08 02:31:00,
2013-06-07 22:36:00,69.9,69.9,29.72,SSW,193,0.0,0.0,100,0.10,,,2.50,LWC V2.00 B2112,2013-06-08 02:36:00,
2013-06-07 22:41:00,69.9,69.9,29.73,SSW,193,0.0,0.0,100,0.06,,,2.50,LWC V2.00 B2112,2013-06-08 02:41:00,
2013-06-07 22:46:00,69.9,69.9,29.73,SSW,193,0.0,0.0,100,0.04,,,2.50,LWC V2.00 B2112,2013-06-08 02:46:00,
2013-06-07 22:51:00,69.9,69.9,29.73,SSW,193,0.0,0.0,100,0.00,,,2.50,LWC V2.00 B2112,2013-06-08 02:51:00,
2013-06-07 23:01:00,69.9,69.9,29.73,SSW,193,0.0,0.0,100,0.00,,,2.50,LWC V2.00 B2112,2013-06-08 03:01:00,
2013-06-07 23:06:00,69.8,69.8,29.73,SSW,193,0.0,0.0,100,0.00,,,2.50,LWC V2.00 B2112,2013-06-08 03:06:00,
2013-06-07 23:11:00,69.8,69.8,29.73,SSW,193,0.0,0.0,100,0.00,,,2.50,LWC V2.00 B2112,2013-06-08 03:11:00,
2013-06-07 23:16:00,69.8,69.8,29.73,SSW,193,0.0,0.0,100,0.00,,,2.50,LWC V2.00 B2112,2013-06-08 03:16:00,
2013-06-07 23:36:00,69.6,69.6,29.73,SSW,193,0.0,0.0,100,0.00,,,2.50,LWC V2.00 B2112,2013-06-08 03:36:00,
2013-06-07 23:41:00,69.6,69.6,29.75,SSW,193,0.0,0.0,100,0.00,,,2.50,LWC V2.00 B2112,2013-06-08 03:41:00,
2013-06-07 23:46:00,69.6,69.6,29.75,SSW,193,0.0,0.0,100,0.00,,,2.50,LWC V2.00 B2112,2013-06-08 03:46:00,
2013-06-07 23:51:00,69.6,69.6,29.75,SSW,193,0.0,0.0,100,0.00,,,2.50,LWC V2.00 B2112,2013-06-08 03:51:00,